sensor_id;sensor_type;location;lat;lon;timestamp;P1;durP1;ratioP1;P2;durP2;ratioP2
21243;SDS011;10780;50.942;4.028;2023-06-24T00:01:16;6.07;;;4.40;;
21243;SDS011;10780;50.942;4.028;2023-06-24T00:03:42;5.15;;;4.38;;
21243;SDS011;10780;50.942;4.028;2023-06-24T00:06:11;7.97;;;4.68;;
21243;SDS011;10780;50.942;4.028;2023-06-24T00:08:43;5.93;;;4.68;;
21243;SDS011;10780;50.942;4.028;2023-06-24T00:11:10;6.80;;;4.60;;
21243;SDS011;10780;50.942;4.028;2023-06-24T00:13:36;6.90;;;4.90;;
21243;SDS011;10780;50.942;4.028;2023-06-24T00:16:02;8.80;;;5.07;;
21243;SDS011;10780;50.942;4.028;2023-06-24T00:18:28;6.68;;;4.88;;
21243;SDS011;10780;50.942;4.028;2023-06-24T00:20:54;6.20;;;4.57;;
21243;SDS011;10780;50.942;4.028;2023-06-24T00:23:21;5.60;;;4.28;;
21243;SDS011;10780;50.942;4.028;2023-06-24T00:25:51;6.05;;;4.65;;
21243;SDS011;10780;50.942;4.028;2023-06-24T00:28:17;7.95;;;4.63;;
21243;SDS011;10780;50.942;4.028;2023-06-24T00:30:43;5.38;;;4.50;;
21243;SDS011;10780;50.942;4.028;2023-06-24T00:33:09;6.65;;;4.05;;
21243;SDS011;10780;50.942;4.028;2023-06-24T00:35:36;6.22;;;4.25;;
21243;SDS011;10780;50.942;4.028;2023-06-24T00:38:05;6.25;;;4.07;;
21243;SDS011;10780;50.942;4.028;2023-06-24T00:40:30;5.57;;;4.43;;
21243;SDS011;10780;50.942;4.028;2023-06-24T00:42:56;5.22;;;4.55;;
21243;SDS011;10780;50.942;4.028;2023-06-24T00:45:22;5.82;;;4.30;;
21243;SDS011;10780;50.942;4.028;2023-06-24T00:47:49;6.97;;;4.18;;
21243;SDS011;10780;50.942;4.028;2023-06-24T00:50:15;5.40;;;4.40;;
21243;SDS011;10780;50.942;4.028;2023-06-24T00:52:41;7.95;;;4.38;;
21243;SDS011;10780;50.942;4.028;2023-06-24T00:55:07;6.72;;;4.50;;
21243;SDS011;10780;50.942;4.028;2023-06-24T00:57:34;6.85;;;4.35;;
21243;SDS011;10780;50.942;4.028;2023-06-24T01:00:02;5.75;;;4.18;;
21243;SDS011;10780;50.942;4.028;2023-06-24T01:02:33;5.78;;;4.50;;
21243;SDS011;10780;50.942;4.028;2023-06-24T01:05:02;5.13;;;4.22;;
21243;SDS011;10780;50.942;4.028;2023-06-24T01:07:31;5.35;;;4.40;;
21243;SDS011;10780;50.942;4.028;2023-06-24T01:09:58;4.80;;;4.15;;
21243;SDS011;10780;50.942;4.028;2023-06-24T01:12:25;8.35;;;4.63;;
21243;SDS011;10780;50.942;4.028;2023-06-24T01:14:51;6.10;;;4.18;;
21243;SDS011;10780;50.942;4.028;2023-06-24T01:17:22;6.03;;;3.90;;
21243;SDS011;10780;50.942;4.028;2023-06-24T01:20:01;4.68;;;4.05;;
21243;SDS011;10780;50.942;4.028;2023-06-24T01:28:48;5.72;;;4.18;;
21243;SDS011;10780;50.942;4.028;2023-06-24T01:36:38;8.10;;;5.18;;
21243;SDS011;10780;50.942;4.028;2023-06-24T01:39:07;6.75;;;4.35;;
21243;SDS011;10780;50.942;4.028;2023-06-24T01:41:36;6.97;;;4.07;;
21243;SDS011;10780;50.942;4.028;2023-06-24T01:44:20;7.70;;;5.15;;
21243;SDS011;10780;50.942;4.028;2023-06-24T01:46:48;5.47;;;4.13;;
21243;SDS011;10780;50.942;4.028;2023-06-24T01:49:17;6.95;;;4.35;;
21243;SDS011;10780;50.942;4.028;2023-06-24T01:51:46;5.30;;;4.70;;
21243;SDS011;10780;50.942;4.028;2023-06-24T01:54:13;6.10;;;4.38;;
21243;SDS011;10780;50.942;4.028;2023-06-24T01:56:44;6.40;;;4.47;;
21243;SDS011;10780;50.942;4.028;2023-06-24T01:59:12;6.78;;;4.63;;
21243;SDS011;10780;50.942;4.028;2023-06-24T02:01:40;6.63;;;4.85;;
21243;SDS011;10780;50.942;4.028;2023-06-24T02:04:08;5.97;;;4.40;;
21243;SDS011;10780;50.942;4.028;2023-06-24T02:06:35;5.90;;;4.15;;
21243;SDS011;10780;50.942;4.028;2023-06-24T02:09:02;5.57;;;4.38;;
21243;SDS011;10780;50.942;4.028;2023-06-24T02:11:30;7.32;;;5.00;;
21243;SDS011;10780;50.942;4.028;2023-06-24T02:13:59;9.45;;;4.63;;
21243;SDS011;10780;50.942;4.028;2023-06-24T02:16:26;5.72;;;4.50;;
21243;SDS011;10780;50.942;4.028;2023-06-24T02:18:53;5.97;;;4.72;;
21243;SDS011;10780;50.942;4.028;2023-06-24T02:21:21;6.10;;;5.00;;
21243;SDS011;10780;50.942;4.028;2023-06-24T02:23:49;6.75;;;4.70;;
21243;SDS011;10780;50.942;4.028;2023-06-24T02:26:16;7.00;;;5.03;;
21243;SDS011;10780;50.942;4.028;2023-06-24T02:28:44;5.65;;;4.72;;
21243;SDS011;10780;50.942;4.028;2023-06-24T02:31:11;7.28;;;5.30;;
21243;SDS011;10780;50.942;4.028;2023-06-24T02:33:37;5.95;;;5.00;;
21243;SDS011;10780;50.942;4.028;2023-06-24T02:36:03;5.40;;;4.75;;
21243;SDS011;10780;50.942;4.028;2023-06-24T02:38:29;11.55;;;5.50;;
21243;SDS011;10780;50.942;4.028;2023-06-24T02:40:55;5.88;;;4.60;;
21243;SDS011;10780;50.942;4.028;2023-06-24T02:43:21;8.02;;;5.00;;
21243;SDS011;10780;50.942;4.028;2023-06-24T02:45:47;7.32;;;5.07;;
21243;SDS011;10780;50.942;4.028;2023-06-24T02:48:14;6.63;;;4.40;;
21243;SDS011;10780;50.942;4.028;2023-06-24T02:50:40;7.18;;;4.88;;
21243;SDS011;10780;50.942;4.028;2023-06-24T02:53:08;6.90;;;5.28;;
21243;SDS011;10780;50.942;4.028;2023-06-24T02:55:36;7.93;;;5.05;;
21243;SDS011;10780;50.942;4.028;2023-06-24T02:58:03;7.75;;;4.95;;
21243;SDS011;10780;50.942;4.028;2023-06-24T03:00:33;7.00;;;5.60;;
21243;SDS011;10780;50.942;4.028;2023-06-24T03:03:02;6.75;;;4.95;;
21243;SDS011;10780;50.942;4.028;2023-06-24T03:05:30;6.82;;;5.32;;
21243;SDS011;10780;50.942;4.028;2023-06-24T03:07:57;5.95;;;4.82;;
21243;SDS011;10780;50.942;4.028;2023-06-24T03:10:24;7.60;;;4.95;;
21243;SDS011;10780;50.942;4.028;2023-06-24T03:12:50;7.05;;;5.50;;
21243;SDS011;10780;50.942;4.028;2023-06-24T03:15:16;7.93;;;5.50;;
21243;SDS011;10780;50.942;4.028;2023-06-24T03:17:42;7.13;;;5.15;;
21243;SDS011;10780;50.942;4.028;2023-06-24T03:20:08;7.55;;;5.28;;
21243;SDS011;10780;50.942;4.028;2023-06-24T03:22:34;7.90;;;5.57;;
21243;SDS011;10780;50.942;4.028;2023-06-24T03:24:59;6.40;;;5.05;;
21243;SDS011;10780;50.942;4.028;2023-06-24T03:27:25;6.15;;;4.68;;
21243;SDS011;10780;50.942;4.028;2023-06-24T03:29:51;9.50;;;5.57;;
21243;SDS011;10780;50.942;4.028;2023-06-24T03:32:16;6.45;;;4.80;;
21243;SDS011;10780;50.942;4.028;2023-06-24T03:34:42;6.40;;;4.88;;
21243;SDS011;10780;50.942;4.028;2023-06-24T03:37:08;6.75;;;5.03;;
21243;SDS011;10780;50.942;4.028;2023-06-24T03:39:34;8.20;;;5.13;;
21243;SDS011;10780;50.942;4.028;2023-06-24T03:41:59;7.38;;;5.20;;
21243;SDS011;10780;50.942;4.028;2023-06-24T03:44:25;7.68;;;5.40;;
21243;SDS011;10780;50.942;4.028;2023-06-24T03:46:51;6.25;;;5.20;;
21243;SDS011;10780;50.942;4.028;2023-06-24T03:49:17;8.23;;;5.40;;
21243;SDS011;10780;50.942;4.028;2023-06-24T03:51:43;7.18;;;5.35;;
21243;SDS011;10780;50.942;4.028;2023-06-24T03:54:09;10.82;;;5.80;;
21243;SDS011;10780;50.942;4.028;2023-06-24T03:56:34;6.57;;;5.03;;
21243;SDS011;10780;50.942;4.028;2023-06-24T03:59:00;7.20;;;5.65;;
21243;SDS011;10780;50.942;4.028;2023-06-24T04:01:26;10.27;;;5.60;;
21243;SDS011;10780;50.942;4.028;2023-06-24T04:03:56;8.52;;;6.65;;
21243;SDS011;10780;50.942;4.028;2023-06-24T04:06:22;7.10;;;4.93;;
21243;SDS011;10780;50.942;4.028;2023-06-24T04:08:48;6.00;;;5.28;;
21243;SDS011;10780;50.942;4.028;2023-06-24T04:11:14;7.30;;;5.50;;
21243;SDS011;10780;50.942;4.028;2023-06-24T04:13:39;7.72;;;4.80;;
21243;SDS011;10780;50.942;4.028;2023-06-24T04:16:05;7.05;;;5.63;;
21243;SDS011;10780;50.942;4.028;2023-06-24T04:18:31;9.43;;;5.63;;
21243;SDS011;10780;50.942;4.028;2023-06-24T04:20:56;8.73;;;4.90;;
21243;SDS011;10780;50.942;4.028;2023-06-24T04:23:22;8.93;;;5.72;;
21243;SDS011;10780;50.942;4.028;2023-06-24T04:25:48;6.72;;;5.30;;
21243;SDS011;10780;50.942;4.028;2023-06-24T04:28:14;6.75;;;5.57;;
21243;SDS011;10780;50.942;4.028;2023-06-24T04:30:39;6.47;;;5.07;;
21243;SDS011;10780;50.942;4.028;2023-06-24T04:33:05;6.43;;;5.30;;
21243;SDS011;10780;50.942;4.028;2023-06-24T04:35:31;9.80;;;5.60;;
21243;SDS011;10780;50.942;4.028;2023-06-24T04:37:57;9.20;;;6.20;;
21243;SDS011;10780;50.942;4.028;2023-06-24T04:40:23;9.95;;;6.00;;
21243;SDS011;10780;50.942;4.028;2023-06-24T04:42:48;7.13;;;5.35;;
21243;SDS011;10780;50.942;4.028;2023-06-24T04:45:14;8.77;;;6.30;;
21243;SDS011;10780;50.942;4.028;2023-06-24T04:47:40;6.93;;;5.28;;
21243;SDS011;10780;50.942;4.028;2023-06-24T04:50:06;9.07;;;5.47;;
21243;SDS011;10780;50.942;4.028;2023-06-24T04:52:34;7.85;;;5.60;;
21243;SDS011;10780;50.942;4.028;2023-06-24T04:55:00;7.60;;;5.20;;
21243;SDS011;10780;50.942;4.028;2023-06-24T04:57:26;7.45;;;5.45;;
21243;SDS011;10780;50.942;4.028;2023-06-24T04:59:54;10.25;;;5.35;;
21243;SDS011;10780;50.942;4.028;2023-06-24T05:02:19;10.40;;;5.82;;
21243;SDS011;10780;50.942;4.028;2023-06-24T05:04:45;7.93;;;5.75;;
21243;SDS011;10780;50.942;4.028;2023-06-24T05:07:11;10.60;;;5.80;;
21243;SDS011;10780;50.942;4.028;2023-06-24T05:09:37;7.18;;;5.70;;
21243;SDS011;10780;50.942;4.028;2023-06-24T05:12:05;6.90;;;5.38;;
21243;SDS011;10780;50.942;4.028;2023-06-24T05:14:33;8.70;;;5.22;;
21243;SDS011;10780;50.942;4.028;2023-06-24T05:17:00;12.98;;;6.28;;
21243;SDS011;10780;50.942;4.028;2023-06-24T05:19:25;10.88;;;6.03;;
21243;SDS011;10780;50.942;4.028;2023-06-24T05:21:51;7.80;;;5.93;;
21243;SDS011;10780;50.942;4.028;2023-06-24T05:24:17;10.23;;;6.65;;
21243;SDS011;10780;50.942;4.028;2023-06-24T05:26:42;7.85;;;5.40;;
21243;SDS011;10780;50.942;4.028;2023-06-24T05:29:09;7.95;;;5.57;;
21243;SDS011;10780;50.942;4.028;2023-06-24T05:31:36;7.13;;;5.38;;
21243;SDS011;10780;50.942;4.028;2023-06-24T05:34:02;8.50;;;6.13;;
21243;SDS011;10780;50.942;4.028;2023-06-24T05:36:28;8.40;;;6.50;;
21243;SDS011;10780;50.942;4.028;2023-06-24T05:38:53;8.18;;;6.25;;
21243;SDS011;10780;50.942;4.028;2023-06-24T05:41:19;9.50;;;6.03;;
21243;SDS011;10780;50.942;4.028;2023-06-24T05:43:45;9.10;;;6.18;;
21243;SDS011;10780;50.942;4.028;2023-06-24T05:46:10;10.25;;;6.50;;
21243;SDS011;10780;50.942;4.028;2023-06-24T05:48:36;8.48;;;5.72;;
21243;SDS011;10780;50.942;4.028;2023-06-24T05:51:02;8.55;;;5.80;;
21243;SDS011;10780;50.942;4.028;2023-06-24T05:53:28;10.90;;;6.82;;
21243;SDS011;10780;50.942;4.028;2023-06-24T05:55:54;8.70;;;5.97;;
21243;SDS011;10780;50.942;4.028;2023-06-24T05:58:19;8.45;;;6.22;;
21243;SDS011;10780;50.942;4.028;2023-06-24T06:00:45;8.40;;;5.63;;
21243;SDS011;10780;50.942;4.028;2023-06-24T06:03:10;7.13;;;5.15;;
21243;SDS011;10780;50.942;4.028;2023-06-24T06:05:36;7.43;;;5.22;;
21243;SDS011;10780;50.942;4.028;2023-06-24T06:08:02;7.45;;;5.30;;
21243;SDS011;10780;50.942;4.028;2023-06-24T06:10:27;7.95;;;5.38;;
21243;SDS011;10780;50.942;4.028;2023-06-24T06:12:53;8.07;;;5.85;;
21243;SDS011;10780;50.942;4.028;2023-06-24T06:15:19;7.45;;;5.47;;
21243;SDS011;10780;50.942;4.028;2023-06-24T06:17:45;11.88;;;5.97;;
21243;SDS011;10780;50.942;4.028;2023-06-24T06:20:11;6.65;;;5.72;;
21243;SDS011;10780;50.942;4.028;2023-06-24T06:22:37;8.32;;;5.32;;
21243;SDS011;10780;50.942;4.028;2023-06-24T06:25:06;8.60;;;6.40;;
21243;SDS011;10780;50.942;4.028;2023-06-24T06:27:32;7.50;;;5.53;;
21243;SDS011;10780;50.942;4.028;2023-06-24T06:29:59;7.05;;;5.90;;
21243;SDS011;10780;50.942;4.028;2023-06-24T06:32:24;8.60;;;5.65;;
21243;SDS011;10780;50.942;4.028;2023-06-24T06:34:50;9.07;;;6.00;;
21243;SDS011;10780;50.942;4.028;2023-06-24T06:37:15;12.18;;;6.15;;
21243;SDS011;10780;50.942;4.028;2023-06-24T06:39:41;8.23;;;6.10;;
21243;SDS011;10780;50.942;4.028;2023-06-24T06:42:07;8.13;;;5.82;;
21243;SDS011;10780;50.942;4.028;2023-06-24T06:44:32;9.02;;;5.88;;
21243;SDS011;10780;50.942;4.028;2023-06-24T06:46:58;9.00;;;5.72;;
21243;SDS011;10780;50.942;4.028;2023-06-24T06:49:24;6.55;;;5.88;;
21243;SDS011;10780;50.942;4.028;2023-06-24T06:51:49;6.97;;;5.72;;
21243;SDS011;10780;50.942;4.028;2023-06-24T06:54:17;8.18;;;5.65;;
21243;SDS011;10780;50.942;4.028;2023-06-24T06:56:42;8.43;;;6.00;;
21243;SDS011;10780;50.942;4.028;2023-06-24T06:59:08;6.78;;;5.60;;
21243;SDS011;10780;50.942;4.028;2023-06-24T07:01:33;12.57;;;5.82;;
21243;SDS011;10780;50.942;4.028;2023-06-24T07:03:59;7.07;;;5.00;;
21243;SDS011;10780;50.942;4.028;2023-06-24T07:06:25;6.95;;;5.00;;
21243;SDS011;10780;50.942;4.028;2023-06-24T07:08:50;7.43;;;4.85;;
21243;SDS011;10780;50.942;4.028;2023-06-24T07:11:16;7.32;;;5.50;;
21243;SDS011;10780;50.942;4.028;2023-06-24T07:13:41;7.18;;;5.15;;
21243;SDS011;10780;50.942;4.028;2023-06-24T07:16:07;5.55;;;4.82;;
21243;SDS011;10780;50.942;4.028;2023-06-24T07:18:33;6.35;;;5.10;;
21243;SDS011;10780;50.942;4.028;2023-06-24T07:20:59;6.18;;;4.95;;
21243;SDS011;10780;50.942;4.028;2023-06-24T07:23:25;5.80;;;4.82;;
21243;SDS011;10780;50.942;4.028;2023-06-24T07:25:50;7.18;;;5.32;;
21243;SDS011;10780;50.942;4.028;2023-06-24T07:28:16;8.00;;;5.20;;
21243;SDS011;10780;50.942;4.028;2023-06-24T07:30:42;6.50;;;5.18;;
21243;SDS011;10780;50.942;4.028;2023-06-24T07:33:08;8.45;;;6.00;;
21243;SDS011;10780;50.942;4.028;2023-06-24T07:35:33;7.53;;;5.75;;
21243;SDS011;10780;50.942;4.028;2023-06-24T07:37:59;7.03;;;5.45;;
21243;SDS011;10780;50.942;4.028;2023-06-24T07:40:25;6.13;;;5.10;;
21243;SDS011;10780;50.942;4.028;2023-06-24T07:42:52;6.65;;;4.63;;
21243;SDS011;10780;50.942;4.028;2023-06-24T07:45:18;5.95;;;4.82;;
21243;SDS011;10780;50.942;4.028;2023-06-24T07:47:44;6.88;;;5.00;;
21243;SDS011;10780;50.942;4.028;2023-06-24T07:50:09;5.53;;;4.70;;
21243;SDS011;10780;50.942;4.028;2023-06-24T07:52:36;5.07;;;4.57;;
21243;SDS011;10780;50.942;4.028;2023-06-24T07:55:02;7.57;;;4.35;;
21243;SDS011;10780;50.942;4.028;2023-06-24T07:57:29;7.13;;;4.63;;
21243;SDS011;10780;50.942;4.028;2023-06-24T07:59:55;5.80;;;4.75;;
21243;SDS011;10780;50.942;4.028;2023-06-24T08:02:21;5.07;;;4.30;;
21243;SDS011;10780;50.942;4.028;2023-06-24T08:04:46;5.47;;;4.60;;
21243;SDS011;10780;50.942;4.028;2023-06-24T08:07:12;5.70;;;4.18;;
21243;SDS011;10780;50.942;4.028;2023-06-24T08:09:37;5.47;;;4.30;;
21243;SDS011;10780;50.942;4.028;2023-06-24T08:12:03;5.07;;;4.13;;
21243;SDS011;10780;50.942;4.028;2023-06-24T08:14:29;4.85;;;3.90;;
21243;SDS011;10780;50.942;4.028;2023-06-24T08:16:55;5.25;;;3.95;;
21243;SDS011;10780;50.942;4.028;2023-06-24T08:19:20;6.65;;;4.18;;
21243;SDS011;10780;50.942;4.028;2023-06-24T08:21:46;6.25;;;3.72;;
21243;SDS011;10780;50.942;4.028;2023-06-24T08:24:12;5.40;;;3.90;;
21243;SDS011;10780;50.942;4.028;2023-06-24T08:26:37;6.95;;;4.57;;
21243;SDS011;10780;50.942;4.028;2023-06-24T08:29:03;5.15;;;4.32;;
21243;SDS011;10780;50.942;4.028;2023-06-24T08:31:28;4.70;;;3.85;;
21243;SDS011;10780;50.942;4.028;2023-06-24T08:33:54;5.72;;;3.55;;
21243;SDS011;10780;50.942;4.028;2023-06-24T08:36:25;3.85;;;3.42;;
21243;SDS011;10780;50.942;4.028;2023-06-24T08:38:52;4.40;;;3.60;;
21243;SDS011;10780;50.942;4.028;2023-06-24T08:41:18;7.80;;;3.80;;
21243;SDS011;10780;50.942;4.028;2023-06-24T08:43:43;5.40;;;3.25;;
21243;SDS011;10780;50.942;4.028;2023-06-24T08:46:09;4.55;;;3.58;;
21243;SDS011;10780;50.942;4.028;2023-06-24T08:48:36;3.67;;;3.13;;
21243;SDS011;10780;50.942;4.028;2023-06-24T08:51:07;4.43;;;3.08;;
21243;SDS011;10780;50.942;4.028;2023-06-24T08:53:34;2.90;;;2.60;;
21243;SDS011;10780;50.942;4.028;2023-06-24T08:56:02;4.47;;;3.28;;
21243;SDS011;10780;50.942;4.028;2023-06-24T08:58:29;4.18;;;3.50;;
21243;SDS011;10780;50.942;4.028;2023-06-24T09:00:55;3.65;;;3.22;;
21243;SDS011;10780;50.942;4.028;2023-06-24T09:03:21;3.13;;;2.83;;
21243;SDS011;10780;50.942;4.028;2023-06-24T09:05:47;3.38;;;3.00;;
21243;SDS011;10780;50.942;4.028;2023-06-24T09:08:13;3.50;;;3.00;;
21243;SDS011;10780;50.942;4.028;2023-06-24T09:10:40;3.42;;;2.88;;
21243;SDS011;10780;50.942;4.028;2023-06-24T09:13:07;3.72;;;3.28;;
21243;SDS011;10780;50.942;4.028;2023-06-24T09:18:03;2.88;;;2.42;;
21243;SDS011;10780;50.942;4.028;2023-06-24T09:20:29;3.95;;;2.80;;
21243;SDS011;10780;50.942;4.028;2023-06-24T09:23:02;3.63;;;2.60;;
21243;SDS011;10780;50.942;4.028;2023-06-24T09:25:29;2.75;;;2.55;;
21243;SDS011;10780;50.942;4.028;2023-06-24T09:27:58;2.88;;;2.45;;
21243;SDS011;10780;50.942;4.028;2023-06-24T09:30:25;2.55;;;2.35;;
21243;SDS011;10780;50.942;4.028;2023-06-24T09:32:52;2.60;;;2.40;;
21243;SDS011;10780;50.942;4.028;2023-06-24T09:35:18;2.67;;;2.47;;
21243;SDS011;10780;50.942;4.028;2023-06-24T09:37:49;4.13;;;2.63;;
21243;SDS011;10780;50.942;4.028;2023-06-24T09:40:15;5.32;;;2.80;;
21243;SDS011;10780;50.942;4.028;2023-06-24T09:45:23;4.07;;;3.15;;
21243;SDS011;10780;50.942;4.028;2023-06-24T09:47:50;4.10;;;3.10;;
21243;SDS011;10780;50.942;4.028;2023-06-24T09:50:16;3.80;;;2.78;;
21243;SDS011;10780;50.942;4.028;2023-06-24T09:52:43;3.70;;;2.88;;
21243;SDS011;10780;50.942;4.028;2023-06-24T09:55:11;3.47;;;2.65;;
21243;SDS011;10780;50.942;4.028;2023-06-24T09:57:39;4.03;;;2.70;;
21243;SDS011;10780;50.942;4.028;2023-06-24T10:00:10;3.13;;;2.63;;
21243;SDS011;10780;50.942;4.028;2023-06-24T10:02:40;3.13;;;2.80;;
21243;SDS011;10780;50.942;4.028;2023-06-24T10:05:06;3.63;;;2.63;;
21243;SDS011;10780;50.942;4.028;2023-06-24T10:07:32;3.85;;;2.63;;
21243;SDS011;10780;50.942;4.028;2023-06-24T10:10:01;2.83;;;2.63;;
21243;SDS011;10780;50.942;4.028;2023-06-24T10:12:30;6.57;;;2.90;;
21243;SDS011;10780;50.942;4.028;2023-06-24T10:14:57;4.18;;;3.00;;
21243;SDS011;10780;50.942;4.028;2023-06-24T10:17:24;3.08;;;2.65;;
21243;SDS011;10780;50.942;4.028;2023-06-24T10:19:51;3.10;;;2.80;;
21243;SDS011;10780;50.942;4.028;2023-06-24T10:22:19;3.35;;;2.92;;
21243;SDS011;10780;50.942;4.028;2023-06-24T10:24:49;2.90;;;2.60;;
21243;SDS011;10780;50.942;4.028;2023-06-24T10:27:20;3.42;;;3.13;;
21243;SDS011;10780;50.942;4.028;2023-06-24T10:29:47;3.33;;;2.80;;
21243;SDS011;10780;50.942;4.028;2023-06-24T10:32:17;3.95;;;2.85;;
21243;SDS011;10780;50.942;4.028;2023-06-24T10:34:44;6.13;;;2.70;;
21243;SDS011;10780;50.942;4.028;2023-06-24T10:37:21;4.18;;;2.92;;
21243;SDS011;10780;50.942;4.028;2023-06-24T10:47:56;4.22;;;2.80;;
21243;SDS011;10780;50.942;4.028;2023-06-24T10:50:22;4.53;;;2.80;;
21243;SDS011;10780;50.942;4.028;2023-06-24T10:52:49;3.80;;;3.05;;
21243;SDS011;10780;50.942;4.028;2023-06-24T10:55:21;2.80;;;2.60;;
21243;SDS011;10780;50.942;4.028;2023-06-24T10:57:47;3.70;;;2.47;;
21243;SDS011;10780;50.942;4.028;2023-06-24T11:00:14;2.90;;;2.20;;
21243;SDS011;10780;50.942;4.028;2023-06-24T11:02:40;3.78;;;2.65;;
21243;SDS011;10780;50.942;4.028;2023-06-24T11:05:06;2.75;;;2.30;;
21243;SDS011;10780;50.942;4.028;2023-06-24T11:07:33;3.05;;;2.40;;
21243;SDS011;10780;50.942;4.028;2023-06-24T11:12:33;2.20;;;2.00;;
21243;SDS011;10780;50.942;4.028;2023-06-24T11:15:01;2.63;;;2.13;;
21243;SDS011;10780;50.942;4.028;2023-06-24T11:17:32;2.95;;;2.67;;
21243;SDS011;10780;50.942;4.028;2023-06-24T11:19:59;2.85;;;2.60;;
21243;SDS011;10780;50.942;4.028;2023-06-24T11:22:26;2.60;;;2.17;;
21243;SDS011;10780;50.942;4.028;2023-06-24T11:24:52;4.32;;;2.33;;
21243;SDS011;10780;50.942;4.028;2023-06-24T11:27:27;2.40;;;2.20;;
21243;SDS011;10780;50.942;4.028;2023-06-24T11:29:55;3.03;;;2.13;;
21243;SDS011;10780;50.942;4.028;2023-06-24T11:32:37;2.55;;;2.35;;
21243;SDS011;10780;50.942;4.028;2023-06-24T11:35:04;4.50;;;2.83;;
21243;SDS011;10780;50.942;4.028;2023-06-24T11:37:31;2.30;;;2.10;;
21243;SDS011;10780;50.942;4.028;2023-06-24T11:40:04;2.22;;;1.92;;
21243;SDS011;10780;50.942;4.028;2023-06-24T11:42:31;2.60;;;2.10;;
21243;SDS011;10780;50.942;4.028;2023-06-24T11:45:02;3.67;;;2.40;;
21243;SDS011;10780;50.942;4.028;2023-06-24T11:47:31;1.95;;;1.70;;
21243;SDS011;10780;50.942;4.028;2023-06-24T11:49:58;2.10;;;1.90;;
21243;SDS011;10780;50.942;4.028;2023-06-24T11:52:44;2.17;;;1.83;;
21243;SDS011;10780;50.942;4.028;2023-06-24T12:00:16;2.45;;;2.17;;
21243;SDS011;10780;50.942;4.028;2023-06-24T12:02:44;3.92;;;2.10;;
21243;SDS011;10780;50.942;4.028;2023-06-24T12:05:09;2.35;;;2.13;;
21243;SDS011;10780;50.942;4.028;2023-06-24T12:07:35;2.63;;;1.88;;
21243;SDS011;10780;50.942;4.028;2023-06-24T12:10:01;2.42;;;1.85;;
21243;SDS011;10780;50.942;4.028;2023-06-24T12:12:27;2.20;;;1.90;;
21243;SDS011;10780;50.942;4.028;2023-06-24T12:14:52;2.72;;;2.22;;
21243;SDS011;10780;50.942;4.028;2023-06-24T12:17:19;2.55;;;2.33;;
21243;SDS011;10780;50.942;4.028;2023-06-24T12:19:44;3.45;;;2.60;;
21243;SDS011;10780;50.942;4.028;2023-06-24T12:22:11;2.55;;;2.28;;
21243;SDS011;10780;50.942;4.028;2023-06-24T12:24:37;3.20;;;2.30;;
21243;SDS011;10780;50.942;4.028;2023-06-24T12:27:03;2.42;;;2.13;;
21243;SDS011;10780;50.942;4.028;2023-06-24T12:29:28;2.90;;;2.50;;
21243;SDS011;10780;50.942;4.028;2023-06-24T12:31:54;2.53;;;2.30;;
21243;SDS011;10780;50.942;4.028;2023-06-24T12:34:19;3.05;;;2.50;;
21243;SDS011;10780;50.942;4.028;2023-06-24T12:36:45;2.70;;;2.50;;
21243;SDS011;10780;50.942;4.028;2023-06-24T12:39:11;2.92;;;2.60;;
21243;SDS011;10780;50.942;4.028;2023-06-24T12:41:37;3.50;;;3.00;;
21243;SDS011;10780;50.942;4.028;2023-06-24T12:44:02;3.50;;;2.90;;
21243;SDS011;10780;50.942;4.028;2023-06-24T12:46:28;3.92;;;3.10;;
21243;SDS011;10780;50.942;4.028;2023-06-24T12:48:53;3.25;;;2.95;;
21243;SDS011;10780;50.942;4.028;2023-06-24T12:51:19;3.25;;;2.95;;
21243;SDS011;10780;50.942;4.028;2023-06-24T12:53:45;4.30;;;2.88;;
21243;SDS011;10780;50.942;4.028;2023-06-24T12:56:11;3.30;;;2.60;;
21243;SDS011;10780;50.942;4.028;2023-06-24T12:58:36;3.35;;;3.00;;
21243;SDS011;10780;50.942;4.028;2023-06-24T13:01:02;3.50;;;2.78;;
21243;SDS011;10780;50.942;4.028;2023-06-24T13:03:28;3.83;;;3.08;;
21243;SDS011;10780;50.942;4.028;2023-06-24T13:05:53;4.28;;;2.95;;
21243;SDS011;10780;50.942;4.028;2023-06-24T13:08:19;5.20;;;3.10;;
21243;SDS011;10780;50.942;4.028;2023-06-24T13:10:44;4.05;;;2.40;;
21243;SDS011;10780;50.942;4.028;2023-06-24T13:13:10;4.07;;;3.28;;
21243;SDS011;10780;50.942;4.028;2023-06-24T13:15:36;3.95;;;3.13;;
21243;SDS011;10780;50.942;4.028;2023-06-24T13:18:01;2.90;;;2.70;;
21243;SDS011;10780;50.942;4.028;2023-06-24T13:20:27;4.82;;;3.20;;
21243;SDS011;10780;50.942;4.028;2023-06-24T13:22:53;5.00;;;3.33;;
21243;SDS011;10780;50.942;4.028;2023-06-24T13:25:19;4.97;;;3.25;;
21243;SDS011;10780;50.942;4.028;2023-06-24T13:27:45;3.90;;;2.80;;
21243;SDS011;10780;50.942;4.028;2023-06-24T13:30:11;4.03;;;3.05;;
21243;SDS011;10780;50.942;4.028;2023-06-24T13:32:37;7.20;;;3.17;;
21243;SDS011;10780;50.942;4.028;2023-06-24T13:35:03;6.22;;;3.42;;
21243;SDS011;10780;50.942;4.028;2023-06-24T13:37:29;3.92;;;3.22;;
21243;SDS011;10780;50.942;4.028;2023-06-24T13:39:55;3.13;;;2.83;;
21243;SDS011;10780;50.942;4.028;2023-06-24T13:42:21;4.20;;;2.90;;
21243;SDS011;10780;50.942;4.028;2023-06-24T13:44:46;3.10;;;2.85;;
21243;SDS011;10780;50.942;4.028;2023-06-24T13:47:12;3.33;;;2.97;;
21243;SDS011;10780;50.942;4.028;2023-06-24T13:49:38;4.13;;;3.03;;
21243;SDS011;10780;50.942;4.028;2023-06-24T13:52:03;3.53;;;3.22;;
21243;SDS011;10780;50.942;4.028;2023-06-24T13:54:29;3.50;;;2.83;;
21243;SDS011;10780;50.942;4.028;2023-06-24T13:56:58;3.03;;;2.75;;
21243;SDS011;10780;50.942;4.028;2023-06-24T13:59:23;3.05;;;2.70;;
21243;SDS011;10780;50.942;4.028;2023-06-24T14:01:49;2.88;;;2.67;;
21243;SDS011;10780;50.942;4.028;2023-06-24T14:04:15;4.80;;;2.95;;
21243;SDS011;10780;50.942;4.028;2023-06-24T14:06:40;3.13;;;2.80;;
21243;SDS011;10780;50.942;4.028;2023-06-24T14:09:08;5.32;;;3.20;;
21243;SDS011;10780;50.942;4.028;2023-06-24T14:11:34;3.65;;;2.83;;
21243;SDS011;10780;50.942;4.028;2023-06-24T14:13:59;4.03;;;2.88;;
21243;SDS011;10780;50.942;4.028;2023-06-24T14:16:25;4.43;;;3.30;;
21243;SDS011;10780;50.942;4.028;2023-06-24T14:18:50;3.58;;;2.80;;
21243;SDS011;10780;50.942;4.028;2023-06-24T14:21:16;4.30;;;2.58;;
21243;SDS011;10780;50.942;4.028;2023-06-24T14:23:42;4.97;;;2.63;;
21243;SDS011;10780;50.942;4.028;2023-06-24T14:26:07;2.65;;;2.45;;
21243;SDS011;10780;50.942;4.028;2023-06-24T14:28:33;3.17;;;2.15;;
21243;SDS011;10780;50.942;4.028;2023-06-24T14:30:59;3.45;;;2.58;;
21243;SDS011;10780;50.942;4.028;2023-06-24T14:33:25;2.80;;;2.40;;
21243;SDS011;10780;50.942;4.028;2023-06-24T14:35:51;2.85;;;2.30;;
21243;SDS011;10780;50.942;4.028;2023-06-24T14:38:16;2.65;;;2.22;;
21243;SDS011;10780;50.942;4.028;2023-06-24T14:40:42;3.33;;;2.85;;
21243;SDS011;10780;50.942;4.028;2023-06-24T14:43:08;2.90;;;2.03;;
21243;SDS011;10780;50.942;4.028;2023-06-24T14:45:33;2.58;;;2.38;;
21243;SDS011;10780;50.942;4.028;2023-06-24T14:47:59;2.50;;;2.22;;
21243;SDS011;10780;50.942;4.028;2023-06-24T14:50:24;2.83;;;2.28;;
21243;SDS011;10780;50.942;4.028;2023-06-24T14:52:50;2.33;;;2.13;;
21243;SDS011;10780;50.942;4.028;2023-06-24T14:55:16;2.53;;;2.25;;
21243;SDS011;10780;50.942;4.028;2023-06-24T14:57:41;2.35;;;2.15;;
21243;SDS011;10780;50.942;4.028;2023-06-24T15:00:07;2.28;;;2.03;;
21243;SDS011;10780;50.942;4.028;2023-06-24T15:02:33;2.50;;;2.30;;
21243;SDS011;10780;50.942;4.028;2023-06-24T15:05:00;2.50;;;2.30;;
21243;SDS011;10780;50.942;4.028;2023-06-24T15:07:27;2.40;;;2.10;;
21243;SDS011;10780;50.942;4.028;2023-06-24T15:09:52;2.50;;;2.30;;
21243;SDS011;10780;50.942;4.028;2023-06-24T15:12:18;2.97;;;2.78;;
21243;SDS011;10780;50.942;4.028;2023-06-24T15:14:43;2.65;;;2.22;;
21243;SDS011;10780;50.942;4.028;2023-06-24T15:17:10;2.55;;;2.35;;